createdAt,value
2023-08-09T00:01:39.686Z,100720.91
2023-08-09T00:04:14.245Z,100721.98
2023-08-09T00:06:42.774Z,100725.77
2023-08-09T00:09:12.146Z,100723.23
2023-08-09T00:11:40.736Z,100722.24
2023-08-09T00:14:09.599Z,100726.25
2023-08-09T00:16:38.545Z,100726.81
2023-08-09T00:19:07.547Z,100726.79
2023-08-09T00:21:37.924Z,100732.13
2023-08-09T00:24:06.940Z,100733.45
2023-08-09T00:26:35.628Z,100728.13
2023-08-09T00:29:04.599Z,100720.98
2023-08-09T00:31:33.548Z,100725.14
2023-08-09T00:34:02.668Z,100727.21
2023-08-09T00:36:31.263Z,100725.67
2023-08-09T00:38:59.890Z,100725.30
2023-08-09T00:41:28.595Z,100724.10
2023-08-09T00:43:57.209Z,100724.96
2023-08-09T00:46:25.984Z,100728.00
2023-08-09T00:48:54.730Z,100726.39
2023-08-09T00:51:23.508Z,100729.19
2023-08-09T00:53:52.303Z,100725.91
2023-08-09T00:56:21.117Z,100725.43
2023-08-09T00:58:50.589Z,100724.70
2023-08-09T01:01:19.188Z,100723.75
2023-08-09T01:03:50.879Z,100719.52
2023-08-09T01:06:59.478Z,100720.92
2023-08-09T01:09:39.744Z,100716.00
2023-08-09T01:12:27.224Z,100714.84
2023-08-09T01:15:00.854Z,100714.56
2023-08-09T01:17:32.714Z,100719.13
2023-08-09T01:20:02.855Z,100721.92
2023-08-09T01:22:39.458Z,100719.87
2023-08-09T01:25:09.505Z,100715.72
2023-08-09T01:27:38.186Z,100716.15
2023-08-09T01:30:10.030Z,100716.34
2023-08-09T01:32:40.179Z,100713.44
2023-08-09T01:35:09.916Z,100715.77
2023-08-09T01:37:53.705Z,100715.80
2023-08-09T01:40:24.176Z,100713.95
2023-08-09T01:42:53.797Z,100712.06
2023-08-09T01:45:23.617Z,100717.16
2023-08-09T01:47:52.975Z,100718.27
2023-08-09T01:50:25.420Z,100717.80
2023-08-09T01:52:56.992Z,100719.23
2023-08-09T01:55:28.084Z,100720.40
2023-08-09T01:57:56.722Z,100720.11
2023-08-09T02:00:25.613Z,100720.89
2023-08-09T02:02:54.597Z,100721.44
2023-08-09T02:05:25.077Z,100728.12
2023-08-09T02:07:53.825Z,100724.65
2023-08-09T02:10:22.458Z,100727.40
2023-08-09T02:12:52.296Z,100723.52
2023-08-09T02:15:23.220Z,100723.02
2023-08-09T02:17:52.123Z,100723.65
2023-08-09T02:20:23.347Z,100723.94
2023-08-09T02:22:52.083Z,100721.61
2023-08-09T02:25:20.853Z,100722.84
2023-08-09T02:27:49.536Z,100726.83
2023-08-09T02:30:18.245Z,100734.65
2023-08-09T02:32:46.988Z,100737.80
2023-08-09T02:35:16.640Z,100735.36
2023-08-09T02:37:45.368Z,100732.09
2023-08-09T02:40:14.137Z,100732.50
2023-08-09T02:42:42.766Z,100734.75
2023-08-09T02:45:12.568Z,100738.39
2023-08-09T02:47:41.130Z,100742.31
2023-08-09T02:50:10.186Z,100741.83
2023-08-09T02:52:38.822Z,100745.34
2023-08-09T02:55:08.359Z,100749.91
2023-08-09T02:57:37.365Z,100756.02
2023-08-09T03:00:08.206Z,100757.70
2023-08-09T03:02:37.397Z,100759.55
2023-08-09T03:05:07.613Z,100765.17
2023-08-09T03:07:37.357Z,100768.33
2023-08-09T03:10:07.157Z,100766.30
2023-08-09T03:12:36.709Z,100769.27
2023-08-09T03:15:06.600Z,100775.52
2023-08-09T03:17:35.596Z,100775.37
2023-08-09T03:20:15.220Z,100778.00
2023-08-09T03:22:45.870Z,100781.98
2023-08-09T03:25:15.033Z,100781.18
2023-08-09T03:27:47.184Z,100786.14
2023-08-09T03:30:16.381Z,100787.59
2023-08-09T03:32:45.064Z,100787.31
2023-08-09T03:35:16.240Z,100786.43
2023-08-09T03:37:45.406Z,100784.03
2023-08-09T03:40:14.654Z,100784.17
2023-08-09T03:42:46.423Z,100783.45
2023-08-09T03:45:15.192Z,100782.86
2023-08-09T03:47:43.910Z,100788.77
2023-08-09T03:50:13.956Z,100789.62
2023-08-09T03:52:42.697Z,100792.70
2023-08-09T03:55:13.123Z,100796.59
2023-08-09T03:57:41.671Z,100801.25
2023-08-09T04:00:15.324Z,100796.10
2023-08-09T04:02:43.768Z,100799.91
2023-08-09T04:05:13.374Z,100802.91
2023-08-09T04:07:43.942Z,100799.97
2023-08-09T04:10:13.688Z,100796.70
2023-08-09T04:12:43.413Z,100798.66
2023-08-09T04:15:12.036Z,100795.89
2023-08-09T04:17:40.612Z,100793.80
2023-08-09T04:20:13.391Z,100798.06
2023-08-09T04:22:42.096Z,100797.38
2023-08-09T04:25:11.890Z,100797.64
2023-08-09T04:27:40.856Z,100798.97
2023-08-09T04:30:10.996Z,100802.83
2023-08-09T04:32:40.821Z,100803.27
2023-08-09T04:36:24.111Z,100803.27
2023-08-09T04:39:12.025Z,100810.04
2023-08-09T04:41:40.521Z,100807.68
2023-08-09T04:44:09.168Z,100808.92
2023-08-09T04:46:37.938Z,100811.41
2023-08-09T04:49:07.590Z,100807.14
2023-08-09T04:51:36.291Z,100808.02
2023-08-09T04:54:05.246Z,100807.64
2023-08-09T04:56:33.953Z,100808.20
2023-08-09T04:59:02.534Z,100808.52
2023-08-09T05:01:31.245Z,100814.50
2023-08-09T05:03:59.867Z,100818.42
2023-08-09T05:06:29.021Z,100814.17
2023-08-09T05:08:57.648Z,100818.71
2023-08-09T05:11:26.269Z,100817.71
2023-08-09T05:13:54.856Z,100813.57
2023-08-09T05:16:26.074Z,100818.39
2023-08-09T05:18:54.793Z,100821.05
2023-08-09T05:21:23.365Z,100819.83
2023-08-09T05:23:51.857Z,100818.90
2023-08-09T05:26:20.422Z,100819.48
2023-08-09T05:28:48.955Z,100823.64
2023-08-09T05:31:17.566Z,100823.52
2023-08-09T05:33:46.172Z,100825.69
2023-08-09T05:36:15.386Z,100826.20
2023-08-09T05:38:43.991Z,100829.14
2023-08-09T05:41:13.690Z,100831.77
2023-08-09T05:43:42.563Z,100834.55
2023-08-09T05:46:11.072Z,100834.86
2023-08-09T05:48:39.856Z,100837.89
2023-08-09T05:51:08.450Z,100839.79
2023-08-09T05:53:36.994Z,100843.59
2023-08-09T05:56:05.520Z,100839.19
2023-08-09T05:58:34.278Z,100843.30
2023-08-09T06:01:05.777Z,100844.18
2023-08-09T06:03:34.555Z,100838.81
2023-08-09T06:06:03.148Z,100839.90
2023-08-09T06:08:31.752Z,100840.25
2023-08-09T06:11:00.540Z,100842.52
2023-08-09T06:13:29.886Z,100844.05
2023-08-09T06:16:00.072Z,100846.07
2023-08-09T06:18:28.698Z,100848.96
2023-08-09T06:20:57.334Z,100851.27
2023-08-09T06:23:26.168Z,100847.56
2023-08-09T06:25:55.319Z,100849.74
2023-08-09T06:28:24.055Z,100851.62
2023-08-09T06:30:52.671Z,100849.80
2023-08-09T06:33:21.283Z,100847.71
2023-08-09T06:35:50.054Z,100849.06
2023-08-09T06:38:19.004Z,100850.84
2023-08-09T06:40:50.033Z,100851.17
2023-08-09T06:43:18.758Z,100850.61
2023-08-09T06:45:50.083Z,100848.71
2023-08-09T06:48:19.957Z,100852.00
2023-08-09T06:50:49.508Z,100847.66
2023-08-09T06:53:18.132Z,100845.36
2023-08-09T06:55:46.821Z,100844.34
2023-08-09T06:58:15.331Z,100838.52
2023-08-09T07:00:46.685Z,100841.63
2023-08-09T07:03:15.650Z,100838.54
2023-08-09T07:05:45.242Z,100834.31
2023-08-09T07:08:14.133Z,100836.14
2023-08-09T07:10:42.728Z,100835.23
2023-08-09T07:13:11.568Z,100835.29
2023-08-09T07:15:41.615Z,100835.13
2023-08-09T07:18:10.758Z,100833.37
2023-08-09T07:20:39.346Z,100834.52
2023-08-09T07:23:07.904Z,100839.73
2023-08-09T07:25:36.527Z,100844.20
2023-08-09T07:28:05.696Z,100842.20
2023-08-09T07:30:34.761Z,100842.58
2023-08-09T07:33:03.548Z,100840.52
2023-08-09T07:35:32.158Z,100836.27
2023-08-09T07:38:03.567Z,100839.88
2023-08-09T07:40:32.799Z,100835.58
2023-08-09T07:43:03.097Z,100837.11
2023-08-09T07:45:31.650Z,100833.91
2023-08-09T07:48:01.137Z,100834.90
2023-08-09T07:50:29.781Z,100831.26
2023-08-09T07:52:58.621Z,100828.96
2023-08-09T07:55:28.149Z,100829.16
2023-08-09T07:57:56.749Z,100830.48
2023-08-09T08:00:31.536Z,100834.23
2023-08-09T08:03:04.831Z,100836.80
2023-08-09T08:05:33.642Z,100832.70
2023-08-09T08:08:02.478Z,100834.44
2023-08-09T08:10:31.262Z,100830.64
2023-08-09T08:13:00.142Z,100831.30
2023-08-09T08:15:28.730Z,100828.81
2023-08-09T08:17:57.695Z,100830.52
2023-08-09T08:20:26.689Z,100825.60
2023-08-09T08:22:55.327Z,100821.89
2023-08-09T08:25:24.742Z,100822.06
2023-08-09T08:27:53.345Z,100821.88
2023-08-09T08:30:25.092Z,100820.33
2023-08-09T08:32:53.919Z,100818.95
2023-08-09T08:35:23.070Z,100815.94
2023-08-09T08:37:54.610Z,100815.17
2023-08-09T08:40:24.120Z,100819.69
2023-08-09T08:42:53.283Z,100818.10
2023-08-09T08:45:22.108Z,100822.88
2023-08-09T08:47:51.448Z,100820.74
2023-08-09T08:50:20.895Z,100816.33
2023-08-09T08:52:53.114Z,100815.16
2023-08-09T08:55:21.861Z,100819.99
2023-08-09T08:57:50.542Z,100819.78
2023-08-09T09:02:51.476Z,100817.74
2023-08-09T09:05:20.535Z,100814.20
2023-08-09T09:07:53.168Z,100810.83
2023-08-09T09:10:22.607Z,100811.71
2023-08-09T09:12:54.955Z,100808.10
2023-08-09T09:15:25.047Z,100804.33
2023-08-09T09:17:53.970Z,100804.67
2023-08-09T09:20:27.434Z,100799.27
2023-08-09T09:22:55.947Z,100799.32
2023-08-09T09:25:25.365Z,100796.82
2023-08-09T09:27:56.800Z,100792.66
2023-08-09T09:30:31.073Z,100791.02
2023-08-09T09:33:06.758Z,100790.27
2023-08-09T09:35:35.604Z,100787.65
2023-08-09T09:38:09.370Z,100786.14
2023-08-09T09:40:38.258Z,100785.54
2023-08-09T09:43:07.213Z,100781.98
2023-08-09T09:45:38.688Z,100777.83
2023-08-09T09:48:19.702Z,100777.13
2023-08-09T09:50:50.720Z,100770.80
2023-08-09T09:53:20.959Z,100766.90
2023-08-09T09:55:50.803Z,100765.81
2023-08-09T09:58:19.425Z,100763.64
2023-08-09T10:00:53.914Z,100763.52
2023-08-09T10:03:26.236Z,100766.42
2023-08-09T10:05:59.329Z,100765.47
2023-08-09T10:08:30.912Z,100760.97
2023-08-09T10:11:00.847Z,100757.95
2023-08-09T10:13:32.383Z,100753.00
2023-08-09T10:16:05.322Z,100754.15
2023-08-09T10:18:48.642Z,100750.09
2023-08-09T10:21:20.017Z,100743.80
2023-08-09T10:24:09.225Z,100738.99
2023-08-09T10:26:38.758Z,100740.30
2023-08-09T10:29:10.380Z,100733.87
2023-08-09T10:31:50.566Z,100727.60
2023-08-09T10:34:23.440Z,100725.29
2023-08-09T10:36:55.669Z,100721.75
2023-08-09T10:39:24.419Z,100719.39
2023-08-09T10:41:57.113Z,100711.49
2023-08-09T10:44:45.193Z,100709.60
2023-08-09T10:47:23.364Z,100707.88
2023-08-09T10:49:54.990Z,100708.93
2023-08-09T10:52:33.174Z,100705.13
2023-08-09T10:55:20.170Z,100698.14
2023-08-09T10:57:51.429Z,100705.83
2023-08-09T11:00:22.595Z,100701.27
2023-08-09T11:03:00.714Z,100700.94
2023-08-09T11:05:29.870Z,100703.21
2023-08-09T11:08:01.303Z,100700.83
2023-08-09T11:10:34.840Z,100695.17
2023-08-09T11:13:14.229Z,100690.24
2023-08-09T11:15:46.018Z,100686.35
2023-08-09T11:18:15.541Z,100680.78
2023-08-09T11:20:46.378Z,100682.04
2023-08-09T11:23:15.135Z,100677.67
2023-08-09T11:25:43.766Z,100675.30
2023-08-09T11:28:16.079Z,100673.70
2023-08-09T11:30:46.930Z,100669.70
2023-08-09T11:33:15.716Z,100670.22
2023-08-09T11:35:45.751Z,100663.36
2023-08-09T11:38:17.373Z,100665.02
2023-08-09T11:40:54.081Z,100661.52
2023-08-09T11:43:23.292Z,100659.36
2023-08-09T11:45:57.153Z,100655.58
2023-08-09T11:48:31.862Z,100650.08
2023-08-09T11:51:07.039Z,100645.89
2023-08-09T11:53:37.705Z,100646.63
2023-08-09T11:56:13.486Z,100646.41
2023-08-09T11:58:45.809Z,100643.02
2023-08-09T12:01:20.025Z,100644.73
2023-08-09T12:03:55.287Z,100642.18
2023-08-09T12:06:45.426Z,100644.16
2023-08-09T12:09:38.459Z,100643.72
2023-08-09T12:12:35.681Z,100642.26
2023-08-09T12:15:05.463Z,100643.22
2023-08-09T12:17:34.263Z,100638.57
2023-08-09T12:20:08.217Z,100642.80
2023-08-09T12:22:37.788Z,100639.45
2023-08-09T12:25:11.366Z,100640.48
2023-08-09T12:27:40.617Z,100637.38
2023-08-09T12:30:12.062Z,100634.81
2023-08-09T12:32:41.230Z,100633.09
2023-08-09T12:35:12.942Z,100633.54
2023-08-09T12:37:42.143Z,100631.44
2023-08-09T12:40:11.950Z,100631.19
2023-08-09T12:42:42.945Z,100629.86
2023-08-09T12:45:14.648Z,100630.18
2023-08-09T12:47:43.641Z,100630.52
2023-08-09T12:50:12.338Z,100628.90
2023-08-09T12:52:41.559Z,100627.59
2023-08-09T12:55:11.196Z,100624.08
2023-08-09T12:57:42.001Z,100627.94
2023-08-09T13:00:14.587Z,100631.54
2023-08-09T13:02:43.365Z,100627.64
2023-08-09T13:05:13.714Z,100630.64
2023-08-09T13:07:42.499Z,100628.54
2023-08-09T13:10:11.358Z,100629.88
2023-08-09T13:12:40.098Z,100629.91
2023-08-09T13:15:09.537Z,100625.20
2023-08-09T13:17:38.301Z,100623.44
2023-08-09T13:20:13.637Z,100624.42
2023-08-09T13:22:44.190Z,100619.73
2023-08-09T13:25:13.305Z,100618.73
2023-08-09T13:27:42.161Z,100617.27
2023-08-09T13:30:11.413Z,100615.56
2023-08-09T13:32:40.209Z,100616.98
2023-08-09T13:35:10.432Z,100618.17
2023-08-09T13:37:42.515Z,100618.45
2023-08-09T13:40:12.600Z,100610.52
2023-08-09T13:42:41.481Z,100608.38
2023-08-09T13:45:11.360Z,100602.40
2023-08-09T13:47:40.373Z,100598.96
2023-08-09T13:50:12.017Z,100599.89
2023-08-09T13:52:40.789Z,100601.48
2023-08-09T13:55:11.743Z,100606.22
2023-08-09T13:57:40.395Z,100598.75
2023-08-09T14:00:15.063Z,100600.04
2023-08-09T14:02:44.020Z,100603.57
2023-08-09T14:05:12.908Z,100602.14
2023-08-09T14:07:42.200Z,100600.34
2023-08-09T14:10:11.163Z,100594.45
2023-08-09T14:12:39.793Z,100593.27
2023-08-09T14:15:10.277Z,100594.45
2023-08-09T14:17:39.050Z,100600.76
2023-08-09T14:20:08.623Z,100595.06
2023-08-09T14:22:37.394Z,100595.77
2023-08-09T14:25:06.673Z,100595.52
2023-08-09T14:27:35.381Z,100600.98
2023-08-09T14:30:04.929Z,100597.24
2023-08-09T14:32:33.815Z,100593.02
2023-08-09T14:35:02.536Z,100592.92
2023-08-09T14:37:31.269Z,100592.87
2023-08-09T14:40:02.089Z,100589.55
2023-08-09T14:42:30.868Z,100588.38
2023-08-09T14:44:59.604Z,100591.29
2023-08-09T14:47:28.376Z,100590.52
2023-08-09T14:49:58.317Z,100588.23
2023-08-09T14:52:27.142Z,100591.85
2023-08-09T14:54:55.780Z,100589.33
2023-08-09T14:57:24.731Z,100585.83
2023-08-09T14:59:53.475Z,100585.67
2023-08-09T15:02:22.351Z,100584.40
2023-08-09T15:04:51.015Z,100580.48
2023-08-09T15:07:19.609Z,100580.30
2023-08-09T15:09:48.353Z,100582.50
2023-08-09T15:12:17.114Z,100580.83
2023-08-09T15:14:45.828Z,100575.64
2023-08-09T15:17:24.635Z,100581.34
2023-08-09T15:19:54.813Z,100578.49
2023-08-09T15:22:24.724Z,100580.66
2023-08-09T15:25:01.280Z,100583.39
2023-08-09T15:27:29.950Z,100580.04
2023-08-09T15:29:58.829Z,100580.20
2023-08-09T15:32:27.597Z,100576.64
2023-08-09T15:34:56.419Z,100576.11
2023-08-09T15:37:25.742Z,100573.70
2023-08-09T15:39:54.404Z,100571.33
2023-08-09T15:42:23.013Z,100571.23
2023-08-09T15:44:51.733Z,100569.98
2023-08-09T15:47:20.440Z,100572.13
2023-08-09T15:49:49.574Z,100573.55
2023-08-09T15:52:19.769Z,100571.06
2023-08-09T15:54:48.609Z,100574.58
2023-08-09T15:57:17.388Z,100577.21
2023-08-09T15:59:46.686Z,100576.61
2023-08-09T16:02:17.219Z,100576.34
2023-08-09T16:04:46.945Z,100578.12
2023-08-09T16:07:15.976Z,100579.30
2023-08-09T16:09:47.155Z,100579.86
2023-08-09T16:12:16.632Z,100582.54
2023-08-09T16:14:45.499Z,100583.58
2023-08-09T16:17:14.399Z,100582.48
2023-08-09T16:19:43.154Z,100580.73
2023-08-09T16:22:12.059Z,100578.54
2023-08-09T16:24:40.807Z,100583.22
2023-08-09T16:27:09.861Z,100585.59
2023-08-09T16:29:38.682Z,100588.04
2023-08-09T16:32:08.955Z,100591.94
2023-08-09T16:34:37.615Z,100587.16
2023-08-09T16:37:06.734Z,100587.55
2023-08-09T16:39:35.637Z,100584.22
2023-08-09T16:42:04.502Z,100586.77
2023-08-09T16:44:35.466Z,100592.46
2023-08-09T16:47:04.749Z,100589.58
2023-08-09T16:49:33.814Z,100590.98
2023-08-09T16:52:03.034Z,100589.83
2023-08-09T16:54:31.743Z,100586.36
2023-08-09T16:57:00.645Z,100589.16
2023-08-09T16:59:29.510Z,100587.95
2023-08-09T17:01:58.748Z,100589.11
2023-08-09T17:04:27.528Z,100585.89
2023-08-09T17:06:56.336Z,100590.77
2023-08-09T17:09:25.412Z,100593.02
2023-08-09T17:11:54.161Z,100593.58
2023-08-09T17:14:22.788Z,100597.15
2023-08-09T17:16:51.491Z,100597.02
2023-08-09T17:19:23.997Z,100598.16
2023-08-09T17:21:54.398Z,100599.55
2023-08-09T17:24:23.625Z,100602.45
2023-08-09T17:26:52.558Z,100607.98
2023-08-09T17:29:21.365Z,100609.25
2023-08-09T17:31:49.972Z,100609.14
2023-08-09T17:34:18.696Z,100610.02
2023-08-09T17:36:47.295Z,100612.24
2023-08-09T17:39:16.216Z,100617.73
2023-08-09T17:41:44.896Z,100618.45
2023-08-09T17:44:13.667Z,100621.30
2023-08-09T17:46:42.333Z,100621.98
2023-08-09T17:49:10.970Z,100621.37
2023-08-09T17:51:39.717Z,100625.37
2023-08-09T17:54:09.166Z,100631.27
2023-08-09T17:56:37.794Z,100630.20
2023-08-09T17:59:07.029Z,100630.58
2023-08-09T18:01:35.831Z,100631.84
2023-08-09T18:04:05.111Z,100631.56
2023-08-09T18:06:33.864Z,100632.73
2023-08-09T18:09:02.515Z,100639.39
2023-08-09T18:11:31.153Z,100639.58
2023-08-09T18:13:59.772Z,100640.68
2023-08-09T18:16:28.480Z,100640.74
2023-08-09T18:18:57.579Z,100643.88
2023-08-09T18:21:29.525Z,100648.02
2023-08-09T18:23:58.272Z,100658.27
2023-08-09T18:26:28.033Z,100658.00
2023-08-09T18:28:56.814Z,100660.58
2023-08-09T18:31:26.784Z,100661.05
2023-08-09T18:33:55.706Z,100666.52
2023-08-09T18:36:24.639Z,100663.27
2023-08-09T18:38:53.386Z,100664.86
2023-08-09T18:41:22.078Z,100665.74
2023-08-09T18:43:51.609Z,100668.41
2023-08-09T18:46:20.292Z,100670.59
2023-08-09T18:48:48.927Z,100668.70
2023-08-09T18:51:18.499Z,100669.58
2023-08-09T18:53:47.376Z,100670.48
2023-08-09T18:56:16.329Z,100669.78
2023-08-09T18:58:45.075Z,100672.38
2023-08-09T19:01:13.892Z,100672.40
2023-08-09T19:03:44.860Z,100670.67
2023-08-09T19:06:13.641Z,100665.36
2023-08-09T19:08:45.666Z,100667.76
2023-08-09T19:11:14.528Z,100667.05
2023-08-09T19:13:43.185Z,100667.70
2023-08-09T19:16:12.759Z,100666.89
2023-08-09T19:18:43.082Z,100671.36
2023-08-09T19:21:12.063Z,100667.06
2023-08-09T19:23:41.100Z,100666.81
2023-08-09T19:26:09.805Z,100669.58
2023-08-09T19:28:38.438Z,100669.05
2023-08-09T19:31:07.883Z,100669.70
2023-08-09T19:33:36.593Z,100670.41
2023-08-09T19:36:09.441Z,100670.17
2023-08-09T19:38:39.455Z,100675.40
2023-08-09T19:41:08.043Z,100675.26
2023-08-09T19:43:36.744Z,100674.95
2023-08-09T19:46:06.195Z,100677.42
2023-08-09T19:48:34.902Z,100680.67
2023-08-09T19:51:03.651Z,100685.21
2023-08-09T19:53:32.240Z,100684.09
2023-08-09T19:56:00.893Z,100688.75
2023-08-09T19:58:29.565Z,100685.70
2023-08-09T20:01:07.388Z,100686.14
2023-08-09T20:03:37.098Z,100686.88
2023-08-09T20:06:07.686Z,100683.84
2023-08-09T20:08:36.837Z,100682.70
2023-08-09T20:11:06.121Z,100686.09
2023-08-09T20:13:34.993Z,100688.50
2023-08-09T20:16:03.738Z,100684.81
2023-08-09T20:18:36.380Z,100683.36
2023-08-09T20:21:09.010Z,100683.29
2023-08-09T20:23:37.776Z,100683.84
2023-08-09T20:26:06.344Z,100684.15
2023-08-09T20:28:35.034Z,100689.05
2023-08-09T20:31:04.168Z,100680.86
2023-08-09T20:33:32.840Z,100681.81
2023-08-09T20:36:01.482Z,100680.94
2023-08-09T20:38:30.211Z,100683.94
2023-08-09T20:40:59.401Z,100682.88
2023-08-09T20:43:28.299Z,100678.96
2023-08-09T20:45:56.985Z,100683.63
2023-08-09T20:48:25.615Z,100685.34
2023-08-09T20:50:58.194Z,100685.88
2023-08-09T20:53:27.288Z,100686.47
2023-08-09T20:55:55.970Z,100691.27
2023-08-09T20:58:24.615Z,100689.82
2023-08-09T21:00:53.235Z,100691.93
2023-08-09T21:03:22.924Z,100692.16
2023-08-09T21:05:57.688Z,100693.98
2023-08-09T21:08:26.301Z,100693.63
2023-08-09T21:10:55.067Z,100697.04
2023-08-09T21:13:23.683Z,100698.62
2023-08-09T21:15:52.304Z,100695.35
2023-08-09T21:18:20.955Z,100692.36
2023-08-09T21:20:50.584Z,100693.39
2023-08-09T21:23:19.887Z,100691.91
2023-08-09T21:25:48.952Z,100692.23
2023-08-09T21:30:56.448Z,100687.30
2023-08-09T21:33:25.075Z,100686.64
2023-08-09T21:35:53.731Z,100687.80
2023-08-09T21:38:22.317Z,100686.10
2023-08-09T21:41:01.383Z,100684.96
2023-08-09T21:43:30.433Z,100687.34
2023-08-09T21:45:59.199Z,100682.09
2023-08-09T21:48:27.747Z,100683.52
2023-08-09T21:51:02.439Z,100687.86
2023-08-09T21:53:31.294Z,100687.30
2023-08-09T21:55:59.961Z,100689.27
2023-08-09T21:58:28.546Z,100684.59
2023-08-09T22:00:57.187Z,100684.58
2023-08-09T22:03:26.099Z,100682.71
2023-08-09T22:05:54.778Z,100680.54
2023-08-09T22:08:23.695Z,100680.05
2023-08-09T22:10:52.333Z,100681.50
2023-08-09T22:13:21.024Z,100681.10
2023-08-09T22:15:51.111Z,100678.02
2023-08-09T22:18:19.923Z,100676.64
2023-08-09T22:20:48.829Z,100679.20
2023-08-09T22:23:17.671Z,100677.89
2023-08-09T22:25:47.166Z,100678.28
2023-08-09T22:28:15.845Z,100675.59
2023-08-09T22:30:45.306Z,100678.16
2023-08-09T22:33:14.092Z,100678.41
2023-08-09T22:35:42.733Z,100671.86
2023-08-09T22:38:11.432Z,100675.27
2023-08-09T22:40:40.064Z,100676.53
2023-08-09T22:43:08.683Z,100675.66
2023-08-09T22:45:37.394Z,100678.90
2023-08-09T22:48:06.642Z,100676.14
2023-08-09T22:50:35.331Z,100675.21
2023-08-09T22:53:04.003Z,100671.06
2023-08-09T22:55:33.108Z,100670.91
2023-08-09T22:58:01.988Z,100668.61
2023-08-09T23:00:30.685Z,100665.98
2023-08-09T23:02:59.554Z,100666.65
2023-08-09T23:05:28.421Z,100667.46
2023-08-09T23:07:57.217Z,100668.08
2023-08-09T23:10:25.818Z,100670.86
2023-08-09T23:12:54.376Z,100669.11
2023-08-09T23:15:23.338Z,100671.21
2023-08-09T23:17:52.583Z,100669.00
2023-08-09T23:20:21.465Z,100668.13
2023-08-09T23:22:51.219Z,100667.00
2023-08-09T23:25:19.915Z,100668.21
2023-08-09T23:27:48.592Z,100667.14
2023-08-09T23:30:17.335Z,100669.07
2023-08-09T23:32:46.445Z,100669.86
2023-08-09T23:35:15.014Z,100670.09
2023-08-09T23:37:43.502Z,100666.16
2023-08-09T23:40:14.451Z,100665.61
2023-08-09T23:42:43.104Z,100668.54
2023-08-09T23:45:11.864Z,100668.52
2023-08-09T23:47:40.594Z,100670.36
2023-08-09T23:50:10.026Z,100680.11
2023-08-09T23:52:38.642Z,100678.70
2023-08-09T23:55:08.290Z,100686.13
2023-08-09T23:57:36.968Z,100691.43
